createdAt,value
2022-10-17T00:00:36.669Z,13.30
2022-10-17T00:03:03.329Z,13.20
2022-10-17T00:05:29.982Z,13.20
2022-10-17T00:07:58.657Z,13.10
2022-10-17T00:10:25.278Z,13.20
2022-10-17T00:12:52.540Z,13.20
2022-10-17T00:15:20.897Z,13.20
2022-10-17T00:17:47.669Z,13.20
2022-10-17T00:20:15.094Z,13.20
2022-10-17T00:22:42.218Z,13.20
2022-10-17T00:25:09.221Z,13.20
2022-10-17T00:27:40.562Z,13.30
2022-10-17T00:30:11.892Z,13.20
2022-10-17T00:32:38.593Z,13.30
2022-10-17T00:35:05.936Z,13.40
2022-10-17T00:37:32.956Z,13.40
2022-10-17T00:39:59.607Z,13.40
2022-10-17T00:42:27.641Z,13.40
2022-10-17T00:45:05.516Z,13.40
2022-10-17T00:47:33.461Z,13.50
2022-10-17T00:50:03.280Z,13.50
2022-10-17T00:52:31.696Z,13.40
2022-10-17T00:55:09.389Z,13.50
2022-10-17T00:57:39.750Z,13.60
2022-10-17T01:00:12.775Z,13.90
2022-10-17T01:02:39.832Z,14.20
2022-10-17T01:05:07.912Z,14.40
2022-10-17T01:07:37.237Z,14.40
2022-10-17T01:10:05.592Z,14.50
2022-10-17T01:12:36.821Z,14.60
2022-10-17T01:15:13.685Z,14.60
2022-10-17T01:18:11.876Z,14.60
2022-10-17T01:21:20.908Z,14.60
2022-10-17T01:24:29.720Z,14.50
2022-10-17T01:27:13.241Z,14.40
2022-10-17T01:30:02.982Z,14.30
2022-10-17T01:32:44.147Z,14.10
2022-10-17T01:35:20.033Z,14.00
2022-10-17T01:38:05.898Z,14.00
2022-10-17T01:40:56.246Z,13.90
2022-10-17T01:44:01.280Z,13.80
2022-10-17T01:46:37.844Z,13.70
2022-10-17T01:49:07.856Z,13.80
2022-10-17T01:51:49.408Z,13.70
2022-10-17T01:54:19.663Z,13.70
2022-10-17T01:56:47.943Z,13.70
2022-10-17T01:59:22.732Z,13.70
2022-10-17T02:01:52.270Z,13.60
2022-10-17T02:04:19.258Z,13.50
2022-10-17T02:06:45.834Z,13.50
2022-10-17T02:09:23.668Z,13.40
2022-10-17T02:12:18.127Z,13.40
2022-10-17T02:15:06.359Z,13.30
2022-10-17T02:21:33.358Z,13.20
2022-10-17T02:24:27.827Z,13.20
2022-10-17T02:27:00.465Z,13.20
2022-10-17T02:29:33.139Z,13.10
2022-10-17T02:32:07.061Z,13.10
2022-10-17T02:34:46.642Z,13.00
2022-10-17T02:37:17.002Z,13.00
2022-10-17T02:39:44.673Z,12.90
2022-10-17T02:42:13.970Z,12.90
2022-10-17T02:44:43.154Z,13.00
2022-10-17T02:47:22.963Z,12.90
2022-10-17T02:49:55.109Z,12.90
2022-10-17T02:52:28.541Z,12.90
2022-10-17T02:55:01.247Z,12.90
2022-10-17T02:57:35.789Z,12.90
2022-10-17T03:00:05.254Z,12.80
2022-10-17T03:02:44.048Z,12.80
2022-10-17T03:05:12.830Z,12.90
2022-10-17T03:07:39.666Z,12.90
2022-10-17T03:10:06.856Z,12.90
2022-10-17T03:12:33.488Z,12.90
2022-10-17T03:15:00.088Z,12.90
2022-10-17T03:17:26.808Z,12.90
2022-10-17T03:19:53.417Z,13.00
2022-10-17T03:22:20.286Z,13.10
2022-10-17T03:24:46.854Z,13.10
2022-10-17T03:27:13.530Z,13.10
2022-10-17T03:29:40.158Z,13.20
2022-10-17T03:32:07.034Z,13.20
2022-10-17T03:34:33.645Z,13.10
2022-10-17T03:37:00.416Z,13.20
2022-10-17T03:39:27.015Z,13.20
2022-10-17T03:41:53.646Z,13.30
2022-10-17T03:44:21.446Z,13.30
2022-10-17T03:46:48.052Z,13.30
2022-10-17T03:49:14.725Z,13.30
2022-10-17T03:51:41.402Z,13.30
2022-10-17T03:54:07.993Z,13.30
2022-10-17T03:56:34.673Z,13.20
2022-10-17T03:59:01.254Z,13.20
2022-10-17T04:01:27.900Z,13.10
2022-10-17T04:03:56.203Z,13.20
2022-10-17T04:06:23.784Z,13.10
2022-10-17T04:08:50.679Z,13.20
2022-10-17T04:11:20.115Z,13.10
2022-10-17T04:13:47.219Z,13.20
2022-10-17T04:16:16.982Z,13.30
2022-10-17T04:18:44.658Z,13.30
2022-10-17T04:21:12.498Z,13.30
2022-10-17T04:23:39.986Z,13.40
2022-10-17T04:26:07.377Z,13.40
2022-10-17T04:28:34.587Z,13.30
2022-10-17T04:31:07.632Z,13.30
2022-10-17T04:33:34.782Z,13.20
2022-10-17T04:36:07.534Z,13.20
2022-10-17T04:38:34.539Z,13.30
2022-10-17T04:41:06.540Z,13.20
2022-10-17T04:43:35.796Z,13.20
2022-10-17T04:46:04.309Z,13.30
2022-10-17T04:48:31.701Z,13.40
2022-10-17T04:51:01.215Z,13.50
2022-10-17T04:53:28.467Z,13.70
2022-10-17T04:55:55.210Z,13.90
2022-10-17T04:58:22.502Z,14.00
2022-10-17T05:00:49.357Z,14.10
2022-10-17T05:03:16.018Z,14.20
2022-10-17T05:05:43.387Z,14.10
2022-10-17T05:08:11.364Z,14.10
2022-10-17T05:10:46.150Z,14.10
2022-10-17T05:13:12.974Z,13.90
2022-10-17T05:15:39.866Z,13.70
2022-10-17T05:18:07.311Z,13.50
2022-10-17T05:20:34.218Z,13.40
2022-10-17T05:23:01.182Z,13.30
2022-10-17T05:25:27.902Z,13.10
2022-10-17T05:27:54.658Z,13.10
2022-10-17T05:30:21.471Z,13.00
2022-10-17T05:32:48.059Z,12.90
2022-10-17T05:35:14.756Z,12.80
2022-10-17T05:37:41.332Z,12.90
2022-10-17T05:40:08.497Z,13.20
2022-10-17T05:42:35.154Z,13.30
2022-10-17T05:45:01.777Z,13.40
2022-10-17T05:47:28.763Z,13.50
2022-10-17T05:49:55.586Z,13.70
2022-10-17T05:52:22.352Z,13.90
2022-10-17T05:54:49.118Z,13.90
2022-10-17T05:57:15.806Z,14.20
2022-10-17T05:59:42.368Z,14.30
2022-10-17T06:02:12.178Z,14.40
2022-10-17T06:04:40.884Z,14.40
2022-10-17T06:07:07.482Z,14.50
2022-10-17T06:09:34.466Z,14.50
2022-10-17T06:12:01.077Z,14.60
2022-10-17T06:14:27.657Z,14.70
2022-10-17T06:16:54.250Z,14.70
2022-10-17T06:19:20.819Z,14.80
2022-10-17T06:21:47.429Z,14.80
2022-10-17T06:24:14.126Z,14.90
2022-10-17T06:26:40.713Z,14.90
2022-10-17T06:29:08.132Z,14.90
2022-10-17T06:31:35.460Z,14.90
2022-10-17T06:34:02.109Z,15.00
2022-10-17T06:36:28.704Z,15.00
2022-10-17T06:38:55.386Z,15.00
2022-10-17T06:41:22.129Z,15.00
2022-10-17T06:43:48.826Z,15.10
2022-10-17T06:46:18.115Z,15.20
2022-10-17T06:48:45.202Z,15.20
2022-10-17T06:51:12.501Z,15.20
2022-10-17T06:53:40.349Z,15.30
2022-10-17T06:56:08.575Z,15.30
2022-10-17T06:58:39.074Z,15.40
2022-10-17T07:03:43.518Z,15.50
2022-10-17T07:06:11.361Z,15.70
2022-10-17T07:08:38.110Z,15.70
2022-10-17T07:11:16.410Z,15.80
2022-10-17T07:13:43.461Z,15.90
2022-10-17T07:16:11.012Z,16.00
2022-10-17T07:18:37.783Z,16.30
2022-10-17T07:21:05.009Z,16.70
2022-10-17T07:23:31.769Z,17.20
2022-10-17T07:26:03.084Z,17.60
2022-10-17T07:28:29.793Z,18.10
2022-10-17T07:31:09.983Z,18.60
2022-10-17T07:33:36.942Z,19.20
2022-10-17T07:36:05.067Z,19.50
2022-10-17T07:38:31.861Z,19.70
2022-10-17T07:41:00.300Z,20.20
2022-10-17T07:43:28.302Z,20.80
2022-10-17T07:45:55.488Z,20.90
2022-10-17T07:48:23.858Z,20.70
2022-10-17T07:50:51.086Z,20.80
2022-10-17T07:53:18.476Z,20.40
2022-10-17T07:55:46.360Z,20.00
2022-10-17T07:58:13.962Z,19.90
2022-10-17T08:00:41.044Z,20.10
2022-10-17T08:03:08.117Z,20.50
2022-10-17T08:05:34.804Z,20.60
2022-10-17T08:08:01.416Z,20.70
2022-10-17T08:10:29.555Z,20.90
2022-10-17T08:12:57.429Z,21.20
2022-10-17T08:15:29.326Z,21.00
2022-10-17T08:17:59.033Z,21.10
2022-10-17T08:20:26.021Z,21.20
2022-10-17T08:22:54.300Z,22.10
2022-10-17T08:25:21.552Z,22.60
2022-10-17T08:27:48.161Z,23.10
2022-10-17T08:30:15.003Z,23.10
2022-10-17T08:32:42.433Z,22.70
2022-10-17T08:35:09.635Z,22.80
2022-10-17T08:37:36.569Z,22.80
2022-10-17T08:40:04.410Z,22.40
2022-10-17T08:42:40.986Z,22.20
2022-10-17T08:45:44.761Z,22.10
2022-10-17T08:48:16.029Z,22.30
2022-10-17T08:50:45.150Z,22.00
2022-10-17T08:53:35.139Z,22.00
2022-10-17T08:56:19.564Z,22.10
2022-10-17T08:58:51.787Z,21.90
2022-10-17T09:01:44.489Z,21.30
2022-10-17T09:04:49.884Z,20.90
2022-10-17T09:07:24.741Z,20.60
2022-10-17T09:10:04.927Z,20.50
2022-10-17T09:12:40.341Z,20.30
2022-10-17T09:15:19.892Z,20.40
2022-10-17T09:18:22.171Z,20.40
2022-10-17T09:20:59.155Z,20.50
2022-10-17T09:23:42.614Z,20.60
2022-10-17T09:26:11.707Z,20.50
2022-10-17T09:28:40.898Z,20.60
2022-10-17T09:31:34.120Z,20.60
2022-10-17T09:34:02.832Z,20.40
2022-10-17T09:36:35.223Z,20.50
2022-10-17T09:39:04.820Z,20.50
2022-10-17T09:41:51.538Z,20.60
2022-10-17T09:44:24.948Z,20.60
2022-10-17T09:47:23.052Z,20.90
2022-10-17T09:49:50.622Z,21.20
2022-10-17T09:52:26.906Z,21.10
2022-10-17T09:54:58.839Z,21.00
2022-10-17T09:57:26.315Z,20.90
2022-10-17T10:00:02.081Z,20.90
2022-10-17T10:02:31.201Z,20.90
2022-10-17T10:05:14.409Z,21.00
2022-10-17T10:07:40.993Z,21.10
2022-10-17T10:10:25.430Z,21.20
2022-10-17T10:13:06.714Z,21.30
2022-10-17T10:15:41.050Z,22.60
2022-10-17T10:18:26.600Z,23.50
2022-10-17T10:21:20.097Z,23.90
2022-10-17T10:24:14.134Z,23.70
2022-10-17T10:26:48.733Z,23.30
2022-10-17T10:29:32.191Z,22.90
2022-10-17T10:32:21.812Z,22.70
2022-10-17T10:35:18.874Z,22.60
2022-10-17T10:37:50.931Z,22.50
2022-10-17T10:40:33.221Z,22.60
2022-10-17T10:43:05.056Z,23.40
2022-10-17T10:45:53.319Z,25.20
2022-10-17T10:48:31.791Z,26.00
2022-10-17T10:51:04.269Z,26.50
2022-10-17T10:54:01.398Z,25.40
2022-10-17T10:56:40.220Z,25.60
2022-10-17T10:59:20.773Z,25.90
2022-10-17T11:02:15.577Z,25.60
2022-10-17T11:04:55.844Z,26.10
2022-10-17T11:07:29.620Z,26.20
2022-10-17T11:10:20.354Z,26.90
2022-10-17T11:12:57.589Z,26.80
2022-10-17T11:15:57.556Z,27.50
2022-10-17T11:18:37.607Z,28.30
2022-10-17T11:21:15.948Z,27.30
2022-10-17T11:23:56.216Z,26.20
2022-10-17T11:26:31.985Z,25.30
2022-10-17T11:29:02.020Z,24.80
2022-10-17T11:31:36.425Z,24.40
2022-10-17T11:34:10.030Z,24.30
2022-10-17T11:36:41.816Z,24.40
2022-10-17T11:39:34.697Z,24.60
2022-10-17T11:42:08.854Z,24.20
2022-10-17T11:44:40.885Z,24.30
2022-10-17T11:47:32.296Z,24.20
2022-10-17T11:53:22.445Z,25.00
2022-10-17T11:55:52.642Z,24.40
2022-10-17T11:58:40.984Z,24.10
2022-10-17T12:01:29.369Z,25.10
2022-10-17T12:04:24.807Z,26.00
2022-10-17T12:07:13.980Z,26.70
2022-10-17T12:09:51.770Z,27.00
2022-10-17T12:12:27.841Z,26.40
2022-10-17T12:15:14.927Z,26.00
2022-10-17T12:17:45.106Z,26.20
2022-10-17T12:20:27.495Z,26.00
2022-10-17T12:23:12.570Z,25.40
2022-10-17T12:25:49.734Z,24.80
2022-10-17T12:28:29.135Z,24.50
2022-10-17T12:31:06.218Z,24.20
2022-10-17T12:33:47.700Z,23.90
2022-10-17T12:36:17.396Z,23.70
2022-10-17T12:38:49.217Z,23.60
2022-10-17T12:41:17.228Z,23.50
2022-10-17T12:43:52.534Z,23.30
2022-10-17T12:46:49.340Z,23.20
2022-10-17T12:49:47.778Z,22.80
2022-10-17T12:52:32.737Z,22.70
2022-10-17T12:55:12.123Z,22.70
2022-10-17T12:57:51.669Z,22.70
2022-10-17T13:00:21.465Z,22.70
2022-10-17T13:02:51.699Z,22.70
2022-10-17T13:05:30.751Z,22.80
2022-10-17T13:08:02.157Z,22.80
2022-10-17T13:10:31.971Z,22.80
2022-10-17T13:13:26.696Z,22.60
2022-10-17T13:15:54.773Z,22.70
2022-10-17T13:18:24.299Z,22.60
2022-10-17T13:21:14.516Z,22.60
2022-10-17T13:23:41.329Z,22.60
2022-10-17T13:26:15.982Z,22.50
2022-10-17T13:28:43.932Z,22.40
2022-10-17T13:31:40.620Z,22.20
2022-10-17T13:34:20.130Z,22.20
2022-10-17T13:36:49.062Z,22.10
2022-10-17T13:39:32.098Z,22.00
2022-10-17T13:42:05.604Z,21.90
2022-10-17T13:44:37.741Z,21.90
2022-10-17T13:47:05.203Z,22.00
2022-10-17T13:49:35.256Z,22.00
2022-10-17T13:52:04.906Z,22.10
2022-10-17T13:54:41.916Z,22.20
2022-10-17T13:57:20.319Z,22.10
2022-10-17T13:59:50.061Z,22.00
2022-10-17T14:02:22.041Z,22.00
2022-10-17T14:05:16.342Z,22.10
2022-10-17T14:08:10.661Z,22.20
2022-10-17T14:10:40.063Z,22.30
2022-10-17T14:13:14.997Z,22.30
2022-10-17T14:15:45.635Z,22.20
2022-10-17T14:18:20.890Z,22.20
2022-10-17T14:21:31.729Z,22.20
2022-10-17T14:23:43.878Z,22.20
2022-10-17T14:26:10.508Z,22.20
2022-10-17T14:28:38.246Z,22.20
2022-10-17T14:31:15.649Z,22.00
2022-10-17T14:33:51.185Z,22.10
2022-10-17T14:36:19.327Z,22.00
2022-10-17T14:38:48.681Z,22.10
2022-10-17T14:41:43.757Z,22.00
2022-10-17T14:44:31.959Z,22.00
2022-10-17T14:47:18.645Z,22.00
2022-10-17T14:50:02.370Z,22.00
2022-10-17T14:52:31.234Z,21.90
2022-10-17T14:54:59.648Z,21.80
2022-10-17T14:57:41.814Z,21.70
2022-10-17T15:00:13.912Z,21.60
2022-10-17T15:02:40.581Z,21.50
2022-10-17T15:05:12.879Z,21.40
2022-10-17T15:07:40.493Z,21.30
2022-10-17T15:10:36.596Z,21.10
2022-10-17T15:15:52.402Z,21.00
2022-10-17T15:18:19.494Z,20.90
2022-10-17T15:20:46.124Z,20.80
2022-10-17T15:23:12.715Z,20.70
2022-10-17T15:25:39.661Z,20.60
2022-10-17T15:28:06.287Z,20.60
2022-10-17T15:30:36.304Z,20.60
2022-10-17T15:33:03.036Z,20.60
2022-10-17T15:35:30.061Z,20.60
2022-10-17T15:37:56.890Z,20.50
2022-10-17T15:40:28.703Z,20.50
2022-10-17T15:42:56.312Z,20.40
2022-10-17T15:45:23.045Z,20.40
2022-10-17T15:47:52.661Z,20.30
2022-10-17T15:50:20.131Z,20.20
2022-10-17T15:52:47.190Z,20.10
2022-10-17T15:55:13.925Z,19.90
2022-10-17T15:57:42.933Z,19.90
2022-10-17T16:00:23.082Z,19.70
2022-10-17T16:02:50.380Z,19.70
2022-10-17T16:05:23.478Z,19.60
2022-10-17T16:07:50.514Z,19.50
2022-10-17T16:10:17.577Z,19.40
2022-10-17T16:12:44.888Z,19.40
2022-10-17T16:15:19.334Z,19.30
2022-10-17T16:17:46.053Z,19.20
2022-10-17T16:20:13.250Z,19.20
2022-10-17T16:22:42.067Z,19.10
2022-10-17T16:25:19.468Z,19.10
2022-10-17T16:27:48.163Z,19.00
2022-10-17T16:30:15.528Z,18.80
2022-10-17T16:32:42.901Z,18.80
2022-10-17T16:35:16.196Z,18.70
2022-10-17T16:37:43.013Z,18.70
2022-10-17T16:40:10.558Z,18.60
2022-10-17T16:42:37.210Z,18.60
2022-10-17T16:45:04.443Z,18.50
2022-10-17T16:47:31.123Z,18.40
2022-10-17T16:49:57.871Z,18.20
2022-10-17T16:52:24.567Z,18.20
2022-10-17T16:54:51.163Z,18.20
2022-10-17T16:57:17.741Z,18.10
2022-10-17T16:59:44.402Z,18.00
2022-10-17T17:02:11.994Z,17.90
2022-10-17T17:04:38.919Z,17.90
2022-10-17T17:07:05.607Z,17.90
2022-10-17T17:09:32.285Z,17.90
2022-10-17T17:11:58.956Z,17.90
2022-10-17T17:14:25.935Z,17.80
2022-10-17T17:16:52.571Z,17.80
2022-10-17T17:19:20.349Z,17.80
2022-10-17T17:21:53.064Z,17.70
2022-10-17T17:24:21.449Z,17.70
2022-10-17T17:26:56.020Z,17.60
2022-10-17T17:29:24.525Z,17.60
2022-10-17T17:31:51.674Z,17.60
2022-10-17T17:34:18.587Z,17.60
2022-10-17T17:36:45.796Z,17.50
2022-10-17T17:39:13.917Z,17.50
2022-10-17T17:41:41.608Z,17.50
2022-10-17T17:44:12.507Z,17.40
2022-10-17T17:46:43.518Z,17.40
2022-10-17T17:49:11.444Z,17.40
2022-10-17T17:51:38.436Z,17.30
2022-10-17T17:54:05.301Z,17.30
2022-10-17T17:56:32.357Z,17.30
2022-10-17T17:59:01.099Z,17.30
2022-10-17T18:01:30.251Z,17.30
2022-10-17T18:04:01.384Z,17.10
2022-10-17T18:06:28.372Z,17.10
2022-10-17T18:08:57.777Z,17.10
2022-10-17T18:11:27.353Z,17.10
2022-10-17T18:13:55.652Z,17.10
2022-10-17T18:16:22.472Z,17.10
2022-10-17T18:18:49.485Z,17.00
2022-10-17T18:21:16.327Z,17.00
2022-10-17T18:23:46.504Z,17.00
2022-10-17T18:26:14.830Z,16.90
2022-10-17T18:28:42.916Z,16.90
2022-10-17T18:31:19.661Z,16.90
2022-10-17T18:33:46.539Z,16.90
2022-10-17T18:36:14.890Z,16.90
2022-10-17T18:38:42.777Z,16.80
2022-10-17T18:41:12.712Z,16.80
2022-10-17T18:43:41.372Z,16.70
2022-10-17T18:46:13.941Z,16.70
2022-10-17T18:48:44.193Z,16.70
2022-10-17T18:51:11.870Z,16.70
2022-10-17T18:53:43.484Z,16.60
2022-10-17T18:56:10.616Z,16.60
2022-10-17T18:58:38.808Z,16.60
2022-10-17T19:01:09.401Z,16.60
2022-10-17T19:03:36.619Z,16.60
2022-10-17T19:06:07.144Z,16.50
2022-10-17T19:08:34.627Z,16.50
2022-10-17T19:11:09.210Z,16.50
2022-10-17T19:13:36.635Z,16.40
2022-10-17T19:16:07.730Z,16.30
2022-10-17T19:18:35.446Z,16.30
2022-10-17T19:21:03.785Z,16.40
2022-10-17T19:23:30.783Z,16.40
2022-10-17T19:26:12.556Z,16.30
2022-10-17T19:28:42.020Z,16.20
2022-10-17T19:31:08.820Z,16.30
2022-10-17T19:33:35.896Z,16.30
2022-10-17T19:36:05.908Z,16.30
2022-10-17T19:38:32.964Z,16.20
2022-10-17T19:43:31.793Z,16.30
2022-10-17T19:46:03.171Z,16.20
2022-10-17T19:48:33.057Z,16.20
2022-10-17T19:50:59.722Z,16.20
2022-10-17T19:53:29.635Z,16.20
2022-10-17T19:55:59.586Z,16.20
2022-10-17T19:58:27.134Z,16.20
2022-10-17T20:00:56.933Z,16.20
2022-10-17T20:03:25.072Z,16.20
2022-10-17T20:05:51.789Z,16.20
2022-10-17T20:08:19.060Z,16.20
2022-10-17T20:10:46.270Z,16.10
2022-10-17T20:13:14.165Z,16.10
2022-10-17T20:15:41.056Z,16.10
2022-10-17T20:18:08.640Z,16.10
2022-10-17T20:20:36.050Z,16.00
2022-10-17T20:23:03.193Z,16.00
2022-10-17T20:25:29.948Z,16.10
2022-10-17T20:27:56.586Z,16.00
2022-10-17T20:30:23.180Z,16.00
2022-10-17T20:32:55.181Z,16.00
2022-10-17T20:35:22.869Z,15.90
2022-10-17T20:37:49.512Z,16.00
2022-10-17T20:40:34.051Z,15.90
2022-10-17T20:43:02.894Z,15.90
2022-10-17T20:45:50.848Z,15.90
2022-10-17T20:48:19.120Z,16.00
2022-10-17T20:50:45.779Z,16.00
2022-10-17T20:56:07.717Z,16.00
2022-10-17T20:58:34.710Z,15.90
2022-10-17T21:01:09.747Z,15.90
2022-10-17T21:03:39.865Z,15.90
2022-10-17T21:06:10.028Z,15.80
2022-10-17T21:08:36.997Z,15.80
2022-10-17T21:11:08.686Z,15.80
2022-10-17T21:13:35.333Z,15.70
2022-10-17T21:16:11.101Z,15.80
2022-10-17T21:18:38.214Z,15.70
2022-10-17T21:21:29.040Z,15.80
2022-10-17T21:23:58.242Z,15.80
2022-10-17T21:26:25.131Z,15.80
2022-10-17T21:28:51.828Z,15.70
2022-10-17T21:31:21.196Z,15.70
2022-10-17T21:33:56.112Z,15.80
2022-10-17T21:36:23.838Z,15.80
2022-10-17T21:38:51.918Z,15.80
2022-10-17T21:41:20.630Z,15.80
2022-10-17T21:43:48.024Z,15.80
2022-10-17T21:46:16.943Z,15.80
2022-10-17T21:48:43.958Z,15.80
2022-10-17T21:51:13.196Z,15.70
2022-10-17T21:53:39.844Z,15.70
2022-10-17T21:56:13.515Z,15.70
2022-10-17T21:58:40.821Z,15.70
2022-10-17T22:01:16.992Z,15.70
2022-10-17T22:03:46.917Z,15.70
2022-10-17T22:09:09.949Z,15.70
2022-10-17T22:11:36.669Z,15.60
2022-10-17T22:14:14.393Z,15.70
2022-10-17T22:16:41.770Z,15.70
2022-10-17T22:19:11.175Z,15.70
2022-10-17T22:21:45.550Z,15.70
2022-10-17T22:24:16.211Z,15.70
2022-10-17T22:26:44.406Z,15.60
2022-10-17T22:29:11.432Z,15.60
2022-10-17T22:31:38.605Z,15.60
2022-10-17T22:34:06.668Z,15.60
2022-10-17T22:36:34.544Z,15.60
2022-10-17T22:39:01.262Z,15.70
2022-10-17T22:41:27.953Z,15.70
2022-10-17T22:43:54.571Z,15.60
2022-10-17T22:46:21.166Z,15.60
2022-10-17T22:48:47.782Z,15.60
2022-10-17T22:51:15.047Z,15.50
2022-10-17T22:53:42.048Z,15.50
2022-10-17T22:56:17.479Z,15.40
2022-10-17T22:58:44.665Z,15.50
2022-10-17T23:01:15.658Z,15.40
2022-10-17T23:03:42.748Z,15.50
2022-10-17T23:06:09.828Z,15.50
2022-10-17T23:08:36.577Z,15.50
2022-10-17T23:11:03.411Z,15.50
2022-10-17T23:13:29.989Z,15.50
2022-10-17T23:15:57.375Z,15.60
2022-10-17T23:18:26.109Z,15.60
2022-10-17T23:20:52.994Z,15.50
2022-10-17T23:23:20.277Z,15.40
2022-10-17T23:25:47.376Z,15.40
2022-10-17T23:28:14.136Z,15.40
2022-10-17T23:30:40.868Z,15.40
2022-10-17T23:33:10.218Z,15.40
2022-10-17T23:35:36.921Z,15.30
2022-10-17T23:38:03.590Z,15.40
2022-10-17T23:40:35.217Z,15.40
2022-10-17T23:43:02.069Z,15.50
2022-10-17T23:45:29.018Z,15.40
2022-10-17T23:47:57.110Z,15.30
2022-10-17T23:50:23.726Z,15.20
2022-10-17T23:52:50.506Z,15.30
2022-10-17T23:55:17.228Z,15.30
2022-10-17T23:57:43.862Z,15.30
